sensor_id;sensor_type;location;lat;lon;timestamp;P1;durP1;ratioP1;P2;durP2;ratioP2
26082;SDS011;13848;49.018;12.078;2023-04-03T00:00:28;3.45;;;2.53;;
26082;SDS011;13848;49.018;12.078;2023-04-03T00:02:54;2.70;;;1.92;;
26082;SDS011;13848;49.018;12.078;2023-04-03T00:05:20;3.15;;;1.98;;
26082;SDS011;13848;49.018;12.078;2023-04-03T00:07:48;2.88;;;1.90;;
26082;SDS011;13848;49.018;12.078;2023-04-03T00:10:14;2.92;;;1.95;;
26082;SDS011;13848;49.018;12.078;2023-04-03T00:12:40;2.30;;;2.10;;
26082;SDS011;13848;49.018;12.078;2023-04-03T00:15:06;2.20;;;1.80;;
26082;SDS011;13848;49.018;12.078;2023-04-03T00:17:32;2.85;;;1.88;;
26082;SDS011;13848;49.018;12.078;2023-04-03T00:19:58;2.35;;;1.92;;
26082;SDS011;13848;49.018;12.078;2023-04-03T00:22:24;2.50;;;1.67;;
26082;SDS011;13848;49.018;12.078;2023-04-03T00:24:51;2.60;;;1.77;;
26082;SDS011;13848;49.018;12.078;2023-04-03T00:27:17;2.78;;;1.85;;
26082;SDS011;13848;49.018;12.078;2023-04-03T00:29:43;2.63;;;1.80;;
26082;SDS011;13848;49.018;12.078;2023-04-03T00:32:09;3.40;;;1.95;;
26082;SDS011;13848;49.018;12.078;2023-04-03T00:34:35;2.10;;;1.90;;
26082;SDS011;13848;49.018;12.078;2023-04-03T00:37:01;2.83;;;1.88;;
26082;SDS011;13848;49.018;12.078;2023-04-03T00:39:27;2.20;;;1.98;;
26082;SDS011;13848;49.018;12.078;2023-04-03T00:41:54;3.20;;;2.03;;
26082;SDS011;13848;49.018;12.078;2023-04-03T00:44:21;2.45;;;1.80;;
26082;SDS011;13848;49.018;12.078;2023-04-03T00:47:08;3.80;;;2.17;;
26082;SDS011;13848;49.018;12.078;2023-04-03T00:49:36;2.65;;;1.80;;
26082;SDS011;13848;49.018;12.078;2023-04-03T00:52:03;7.13;;;2.05;;
26082;SDS011;13848;49.018;12.078;2023-04-03T00:54:32;3.85;;;2.03;;
26082;SDS011;13848;49.018;12.078;2023-04-03T00:57:00;2.60;;;2.08;;
26082;SDS011;13848;49.018;12.078;2023-04-03T00:59:27;2.95;;;1.88;;
26082;SDS011;13848;49.018;12.078;2023-04-03T01:01:57;3.03;;;1.90;;
26082;SDS011;13848;49.018;12.078;2023-04-03T01:04:27;3.13;;;2.03;;
26082;SDS011;13848;49.018;12.078;2023-04-03T01:06:54;3.13;;;1.90;;
26082;SDS011;13848;49.018;12.078;2023-04-03T01:09:21;2.92;;;1.88;;
26082;SDS011;13848;49.018;12.078;2023-04-03T01:11:47;4.45;;;2.10;;
26082;SDS011;13848;49.018;12.078;2023-04-03T01:14:14;3.58;;;2.00;;
26082;SDS011;13848;49.018;12.078;2023-04-03T01:16:40;3.00;;;2.13;;
26082;SDS011;13848;49.018;12.078;2023-04-03T01:19:07;2.88;;;2.00;;
26082;SDS011;13848;49.018;12.078;2023-04-03T01:21:48;2.97;;;1.83;;
26082;SDS011;13848;49.018;12.078;2023-04-03T01:24:31;2.60;;;1.88;;
26082;SDS011;13848;49.018;12.078;2023-04-03T01:26:58;6.88;;;1.83;;
26082;SDS011;13848;49.018;12.078;2023-04-03T01:29:27;2.85;;;2.10;;
26082;SDS011;13848;49.018;12.078;2023-04-03T01:31:55;3.00;;;1.90;;
26082;SDS011;13848;49.018;12.078;2023-04-03T01:34:22;3.83;;;2.17;;
26082;SDS011;13848;49.018;12.078;2023-04-03T01:36:48;3.00;;;2.40;;
26082;SDS011;13848;49.018;12.078;2023-04-03T01:39:15;5.40;;;2.10;;
26082;SDS011;13848;49.018;12.078;2023-04-03T01:41:41;3.58;;;2.28;;
26082;SDS011;13848;49.018;12.078;2023-04-03T01:44:07;3.97;;;2.10;;
26082;SDS011;13848;49.018;12.078;2023-04-03T01:46:33;2.42;;;1.92;;
26082;SDS011;13848;49.018;12.078;2023-04-03T01:49:00;3.28;;;2.00;;
26082;SDS011;13848;49.018;12.078;2023-04-03T01:51:27;2.30;;;1.88;;
26082;SDS011;13848;49.018;12.078;2023-04-03T01:53:53;2.63;;;2.08;;
26082;SDS011;13848;49.018;12.078;2023-04-03T01:56:19;4.13;;;2.05;;
26082;SDS011;13848;49.018;12.078;2023-04-03T01:58:45;2.72;;;2.10;;
26082;SDS011;13848;49.018;12.078;2023-04-03T02:01:11;3.00;;;2.00;;
26082;SDS011;13848;49.018;12.078;2023-04-03T02:03:36;3.20;;;2.10;;
26082;SDS011;13848;49.018;12.078;2023-04-03T02:06:04;2.90;;;2.08;;
26082;SDS011;13848;49.018;12.078;2023-04-03T02:08:30;2.75;;;1.98;;
26082;SDS011;13848;49.018;12.078;2023-04-03T02:10:56;2.78;;;2.00;;
26082;SDS011;13848;49.018;12.078;2023-04-03T02:13:22;3.15;;;1.98;;
26082;SDS011;13848;49.018;12.078;2023-04-03T02:15:48;2.88;;;2.05;;
26082;SDS011;13848;49.018;12.078;2023-04-03T02:18:14;3.97;;;2.30;;
26082;SDS011;13848;49.018;12.078;2023-04-03T02:20:40;2.58;;;2.17;;
26082;SDS011;13848;49.018;12.078;2023-04-03T02:23:08;3.20;;;1.88;;
26082;SDS011;13848;49.018;12.078;2023-04-03T02:25:34;2.45;;;1.98;;
26082;SDS011;13848;49.018;12.078;2023-04-03T02:28:00;4.22;;;2.17;;
26082;SDS011;13848;49.018;12.078;2023-04-03T02:30:26;2.78;;;1.98;;
26082;SDS011;13848;49.018;12.078;2023-04-03T02:32:52;4.20;;;2.42;;
26082;SDS011;13848;49.018;12.078;2023-04-03T02:35:18;2.50;;;2.08;;
26082;SDS011;13848;49.018;12.078;2023-04-03T02:37:44;2.95;;;1.90;;
26082;SDS011;13848;49.018;12.078;2023-04-03T02:40:11;3.63;;;2.08;;
26082;SDS011;13848;49.018;12.078;2023-04-03T02:42:37;4.18;;;2.13;;
26082;SDS011;13848;49.018;12.078;2023-04-03T02:45:04;3.72;;;2.10;;
26082;SDS011;13848;49.018;12.078;2023-04-03T02:47:30;2.55;;;2.05;;
26082;SDS011;13848;49.018;12.078;2023-04-03T02:49:56;2.05;;;1.60;;
26082;SDS011;13848;49.018;12.078;2023-04-03T02:52:22;3.50;;;2.00;;
26082;SDS011;13848;49.018;12.078;2023-04-03T02:54:48;4.50;;;1.80;;
26082;SDS011;13848;49.018;12.078;2023-04-03T03:00:04;2.58;;;2.25;;
26082;SDS011;13848;49.018;12.078;2023-04-03T03:02:31;2.33;;;1.90;;
26082;SDS011;13848;49.018;12.078;2023-04-03T03:04:57;3.17;;;2.35;;
26082;SDS011;13848;49.018;12.078;2023-04-03T03:07:22;2.88;;;2.30;;
26082;SDS011;13848;49.018;12.078;2023-04-03T03:09:48;2.33;;;1.88;;
26082;SDS011;13848;49.018;12.078;2023-04-03T03:12:14;5.35;;;2.33;;
26082;SDS011;13848;49.018;12.078;2023-04-03T03:14:42;2.15;;;1.88;;
26082;SDS011;13848;49.018;12.078;2023-04-03T03:17:08;2.80;;;2.00;;
26082;SDS011;13848;49.018;12.078;2023-04-03T03:19:33;4.45;;;2.00;;
26082;SDS011;13848;49.018;12.078;2023-04-03T03:21:59;2.53;;;1.98;;
26082;SDS011;13848;49.018;12.078;2023-04-03T03:24:25;2.95;;;2.08;;
26082;SDS011;13848;49.018;12.078;2023-04-03T03:26:51;4.18;;;2.10;;
26082;SDS011;13848;49.018;12.078;2023-04-03T03:29:17;2.92;;;2.15;;
26082;SDS011;13848;49.018;12.078;2023-04-03T03:31:44;2.28;;;2.03;;
26082;SDS011;13848;49.018;12.078;2023-04-03T03:34:10;4.97;;;2.30;;
26082;SDS011;13848;49.018;12.078;2023-04-03T03:36:36;3.53;;;2.08;;
26082;SDS011;13848;49.018;12.078;2023-04-03T03:39:02;3.05;;;1.70;;
26082;SDS011;13848;49.018;12.078;2023-04-03T03:41:28;3.33;;;2.00;;
26082;SDS011;13848;49.018;12.078;2023-04-03T03:43:54;2.70;;;2.08;;
26082;SDS011;13848;49.018;12.078;2023-04-03T03:46:20;2.45;;;2.00;;
26082;SDS011;13848;49.018;12.078;2023-04-03T03:48:47;2.35;;;1.98;;
26082;SDS011;13848;49.018;12.078;2023-04-03T03:51:13;3.92;;;2.40;;
26082;SDS011;13848;49.018;12.078;2023-04-03T03:53:39;4.70;;;2.42;;
26082;SDS011;13848;49.018;12.078;2023-04-03T03:56:05;2.15;;;1.88;;
26082;SDS011;13848;49.018;12.078;2023-04-03T03:58:32;2.65;;;1.88;;
26082;SDS011;13848;49.018;12.078;2023-04-03T04:00:59;2.15;;;1.75;;
26082;SDS011;13848;49.018;12.078;2023-04-03T04:03:26;3.47;;;2.38;;
26082;SDS011;13848;49.018;12.078;2023-04-03T04:05:53;3.00;;;2.13;;
26082;SDS011;13848;49.018;12.078;2023-04-03T04:08:19;3.67;;;2.10;;
26082;SDS011;13848;49.018;12.078;2023-04-03T04:10:45;3.90;;;1.92;;
26082;SDS011;13848;49.018;12.078;2023-04-03T04:13:11;2.67;;;2.10;;
26082;SDS011;13848;49.018;12.078;2023-04-03T04:15:37;5.95;;;2.08;;
26082;SDS011;13848;49.018;12.078;2023-04-03T04:18:03;3.60;;;2.20;;
26082;SDS011;13848;49.018;12.078;2023-04-03T04:20:29;3.17;;;1.92;;
26082;SDS011;13848;49.018;12.078;2023-04-03T04:22:56;4.90;;;1.90;;
26082;SDS011;13848;49.018;12.078;2023-04-03T04:25:22;3.53;;;2.38;;
26082;SDS011;13848;49.018;12.078;2023-04-03T04:27:48;3.05;;;2.05;;
26082;SDS011;13848;49.018;12.078;2023-04-03T04:30:14;2.67;;;2.08;;
26082;SDS011;13848;49.018;12.078;2023-04-03T04:32:40;3.15;;;1.95;;
26082;SDS011;13848;49.018;12.078;2023-04-03T04:35:06;3.83;;;1.90;;
26082;SDS011;13848;49.018;12.078;2023-04-03T04:37:33;4.97;;;2.17;;
26082;SDS011;13848;49.018;12.078;2023-04-03T04:40:00;2.63;;;2.05;;
26082;SDS011;13848;49.018;12.078;2023-04-03T04:42:26;3.50;;;2.00;;
26082;SDS011;13848;49.018;12.078;2023-04-03T04:44:52;3.75;;;1.98;;
26082;SDS011;13848;49.018;12.078;2023-04-03T04:47:18;5.88;;;2.30;;
26082;SDS011;13848;49.018;12.078;2023-04-03T04:49:44;3.85;;;2.05;;
26082;SDS011;13848;49.018;12.078;2023-04-03T04:52:11;5.82;;;2.08;;
26082;SDS011;13848;49.018;12.078;2023-04-03T04:54:36;4.20;;;2.30;;
26082;SDS011;13848;49.018;12.078;2023-04-03T04:57:04;3.33;;;2.00;;
26082;SDS011;13848;49.018;12.078;2023-04-03T04:59:30;5.50;;;2.28;;
26082;SDS011;13848;49.018;12.078;2023-04-03T05:01:56;3.38;;;2.08;;
26082;SDS011;13848;49.018;12.078;2023-04-03T05:04:22;4.20;;;2.40;;
26082;SDS011;13848;49.018;12.078;2023-04-03T05:06:48;4.20;;;2.17;;
26082;SDS011;13848;49.018;12.078;2023-04-03T05:09:13;3.90;;;2.13;;
26082;SDS011;13848;49.018;12.078;2023-04-03T05:11:40;3.03;;;2.20;;
26082;SDS011;13848;49.018;12.078;2023-04-03T05:14:07;3.05;;;2.13;;
26082;SDS011;13848;49.018;12.078;2023-04-03T05:16:33;3.17;;;2.20;;
26082;SDS011;13848;49.018;12.078;2023-04-03T05:18:59;3.95;;;2.20;;
26082;SDS011;13848;49.018;12.078;2023-04-03T05:21:25;3.88;;;2.28;;
26082;SDS011;13848;49.018;12.078;2023-04-03T05:23:50;3.78;;;2.40;;
26082;SDS011;13848;49.018;12.078;2023-04-03T05:26:16;3.10;;;2.00;;
26082;SDS011;13848;49.018;12.078;2023-04-03T05:28:43;4.88;;;2.00;;
26082;SDS011;13848;49.018;12.078;2023-04-03T05:31:10;4.15;;;2.58;;
26082;SDS011;13848;49.018;12.078;2023-04-03T05:33:36;3.58;;;2.42;;
26082;SDS011;13848;49.018;12.078;2023-04-03T05:36:02;4.55;;;2.20;;
26082;SDS011;13848;49.018;12.078;2023-04-03T05:38:29;4.32;;;2.30;;
26082;SDS011;13848;49.018;12.078;2023-04-03T05:40:55;3.67;;;2.10;;
26082;SDS011;13848;49.018;12.078;2023-04-03T05:43:21;2.45;;;2.20;;
26082;SDS011;13848;49.018;12.078;2023-04-03T05:45:47;4.65;;;2.38;;
26082;SDS011;13848;49.018;12.078;2023-04-03T05:48:14;6.93;;;2.25;;
26082;SDS011;13848;49.018;12.078;2023-04-03T05:50:40;2.85;;;2.15;;
26082;SDS011;13848;49.018;12.078;2023-04-03T05:53:06;5.25;;;2.53;;
26082;SDS011;13848;49.018;12.078;2023-04-03T05:55:37;4.45;;;2.58;;
26082;SDS011;13848;49.018;12.078;2023-04-03T05:58:03;4.57;;;2.70;;
26082;SDS011;13848;49.018;12.078;2023-04-03T06:00:29;3.90;;;2.58;;
26082;SDS011;13848;49.018;12.078;2023-04-03T06:02:55;3.17;;;2.50;;
26082;SDS011;13848;49.018;12.078;2023-04-03T06:05:22;3.63;;;2.30;;
26082;SDS011;13848;49.018;12.078;2023-04-03T06:07:48;4.05;;;2.80;;
26082;SDS011;13848;49.018;12.078;2023-04-03T06:10:14;5.28;;;2.83;;
26082;SDS011;13848;49.018;12.078;2023-04-03T06:12:40;6.38;;;2.38;;
26082;SDS011;13848;49.018;12.078;2023-04-03T06:15:06;2.78;;;2.30;;
26082;SDS011;13848;49.018;12.078;2023-04-03T06:17:33;4.50;;;2.58;;
26082;SDS011;13848;49.018;12.078;2023-04-03T06:19:59;6.80;;;2.58;;
26082;SDS011;13848;49.018;12.078;2023-04-03T06:22:26;8.13;;;2.40;;
26082;SDS011;13848;49.018;12.078;2023-04-03T06:24:52;4.40;;;2.85;;
26082;SDS011;13848;49.018;12.078;2023-04-03T06:27:18;8.65;;;3.10;;
26082;SDS011;13848;49.018;12.078;2023-04-03T06:29:44;4.68;;;2.90;;
26082;SDS011;13848;49.018;12.078;2023-04-03T06:32:10;6.13;;;2.80;;
26082;SDS011;13848;49.018;12.078;2023-04-03T06:34:36;5.45;;;2.47;;
26082;SDS011;13848;49.018;12.078;2023-04-03T06:37:02;4.63;;;3.10;;
26082;SDS011;13848;49.018;12.078;2023-04-03T06:39:30;4.65;;;2.80;;
26082;SDS011;13848;49.018;12.078;2023-04-03T06:41:56;4.72;;;2.70;;
26082;SDS011;13848;49.018;12.078;2023-04-03T06:44:22;6.18;;;3.05;;
26082;SDS011;13848;49.018;12.078;2023-04-03T06:46:47;3.97;;;2.63;;
26082;SDS011;13848;49.018;12.078;2023-04-03T06:49:13;6.10;;;2.70;;
26082;SDS011;13848;49.018;12.078;2023-04-03T06:51:39;5.43;;;2.60;;
26082;SDS011;13848;49.018;12.078;2023-04-03T06:54:05;5.25;;;2.70;;
26082;SDS011;13848;49.018;12.078;2023-04-03T06:56:33;8.15;;;2.85;;
26082;SDS011;13848;49.018;12.078;2023-04-03T06:58:59;6.50;;;2.63;;
26082;SDS011;13848;49.018;12.078;2023-04-03T07:01:26;5.97;;;2.85;;
26082;SDS011;13848;49.018;12.078;2023-04-03T07:03:52;4.93;;;3.20;;
26082;SDS011;13848;49.018;12.078;2023-04-03T07:06:19;4.05;;;2.53;;
26082;SDS011;13848;49.018;12.078;2023-04-03T07:08:45;4.65;;;2.60;;
26082;SDS011;13848;49.018;12.078;2023-04-03T07:11:11;3.03;;;2.38;;
26082;SDS011;13848;49.018;12.078;2023-04-03T07:13:39;7.10;;;2.60;;
26082;SDS011;13848;49.018;12.078;2023-04-03T07:16:06;4.47;;;2.60;;
26082;SDS011;13848;49.018;12.078;2023-04-03T07:18:33;5.40;;;2.60;;
26082;SDS011;13848;49.018;12.078;2023-04-03T07:20:59;5.30;;;2.67;;
26082;SDS011;13848;49.018;12.078;2023-04-03T07:23:25;5.70;;;3.08;;
26082;SDS011;13848;49.018;12.078;2023-04-03T07:25:51;7.82;;;2.53;;
26082;SDS011;13848;49.018;12.078;2023-04-03T07:28:20;3.33;;;2.20;;
26082;SDS011;13848;49.018;12.078;2023-04-03T07:30:48;5.65;;;2.42;;
26082;SDS011;13848;49.018;12.078;2023-04-03T07:33:16;4.55;;;2.45;;
26082;SDS011;13848;49.018;12.078;2023-04-03T07:35:46;4.03;;;1.98;;
26082;SDS011;13848;49.018;12.078;2023-04-03T07:38:12;4.53;;;2.30;;
26082;SDS011;13848;49.018;12.078;2023-04-03T07:40:39;4.30;;;2.05;;
26082;SDS011;13848;49.018;12.078;2023-04-03T07:43:05;5.20;;;2.25;;
26082;SDS011;13848;49.018;12.078;2023-04-03T07:45:31;3.85;;;1.83;;
26082;SDS011;13848;49.018;12.078;2023-04-03T07:47:59;6.07;;;2.20;;
26082;SDS011;13848;49.018;12.078;2023-04-03T07:50:25;6.47;;;2.60;;
26082;SDS011;13848;49.018;12.078;2023-04-03T07:52:51;2.65;;;1.80;;
26082;SDS011;13848;49.018;12.078;2023-04-03T07:55:17;5.15;;;2.05;;
26082;SDS011;13848;49.018;12.078;2023-04-03T07:57:43;3.78;;;1.90;;
26082;SDS011;13848;49.018;12.078;2023-04-03T08:00:09;7.05;;;2.25;;
26082;SDS011;13848;49.018;12.078;2023-04-03T08:02:36;4.68;;;2.10;;
26082;SDS011;13848;49.018;12.078;2023-04-03T08:05:04;4.50;;;2.40;;
26082;SDS011;13848;49.018;12.078;2023-04-03T08:07:30;4.35;;;2.10;;
26082;SDS011;13848;49.018;12.078;2023-04-03T08:09:56;3.72;;;2.17;;
26082;SDS011;13848;49.018;12.078;2023-04-03T08:12:22;4.35;;;2.25;;
26082;SDS011;13848;49.018;12.078;2023-04-03T08:14:48;4.78;;;1.65;;
26082;SDS011;13848;49.018;12.078;2023-04-03T08:17:14;3.53;;;1.60;;
26082;SDS011;13848;49.018;12.078;2023-04-03T08:19:40;5.70;;;2.00;;
26082;SDS011;13848;49.018;12.078;2023-04-03T08:22:07;5.30;;;2.20;;
26082;SDS011;13848;49.018;12.078;2023-04-03T08:24:33;2.88;;;2.00;;
26082;SDS011;13848;49.018;12.078;2023-04-03T08:26:59;3.67;;;1.75;;
26082;SDS011;13848;49.018;12.078;2023-04-03T08:29:26;3.53;;;1.83;;
26082;SDS011;13848;49.018;12.078;2023-04-03T08:31:52;3.92;;;1.60;;
26082;SDS011;13848;49.018;12.078;2023-04-03T08:34:19;3.67;;;1.73;;
26082;SDS011;13848;49.018;12.078;2023-04-03T08:36:45;4.78;;;1.60;;
26082;SDS011;13848;49.018;12.078;2023-04-03T08:39:13;4.05;;;1.60;;
26082;SDS011;13848;49.018;12.078;2023-04-03T08:41:40;4.72;;;1.80;;
26082;SDS011;13848;49.018;12.078;2023-04-03T08:44:14;5.82;;;2.28;;
26082;SDS011;13848;49.018;12.078;2023-04-03T08:46:47;3.70;;;1.35;;
26082;SDS011;13848;49.018;12.078;2023-04-03T08:49:26;5.28;;;1.38;;
26082;SDS011;13848;49.018;12.078;2023-04-03T08:51:55;2.70;;;1.30;;
26082;SDS011;13848;49.018;12.078;2023-04-03T08:54:27;3.50;;;1.30;;
26082;SDS011;13848;49.018;12.078;2023-04-03T08:56:55;1.90;;;1.23;;
26082;SDS011;13848;49.018;12.078;2023-04-03T08:59:24;1.67;;;1.05;;
26082;SDS011;13848;49.018;12.078;2023-04-03T09:01:53;3.15;;;1.40;;
26082;SDS011;13848;49.018;12.078;2023-04-03T09:04:19;2.05;;;1.20;;
26082;SDS011;13848;49.018;12.078;2023-04-03T09:06:47;3.15;;;1.40;;
26082;SDS011;13848;49.018;12.078;2023-04-03T09:09:22;2.80;;;1.27;;
26082;SDS011;13848;49.018;12.078;2023-04-03T09:11:57;1.90;;;1.17;;
26082;SDS011;13848;49.018;12.078;2023-04-03T09:14:33;3.28;;;1.27;;
26082;SDS011;13848;49.018;12.078;2023-04-03T09:17:03;1.33;;;1.10;;
26082;SDS011;13848;49.018;12.078;2023-04-03T09:19:36;2.33;;;1.33;;
26082;SDS011;13848;49.018;12.078;2023-04-03T09:22:11;3.20;;;1.40;;
26082;SDS011;13848;49.018;12.078;2023-04-03T09:24:44;2.22;;;1.17;;
26082;SDS011;13848;49.018;12.078;2023-04-03T09:27:12;8.05;;;1.35;;
26082;SDS011;13848;49.018;12.078;2023-04-03T09:29:39;3.40;;;1.13;;
26082;SDS011;13848;49.018;12.078;2023-04-03T09:32:17;3.55;;;1.42;;
26082;SDS011;13848;49.018;12.078;2023-04-03T09:34:46;2.47;;;1.30;;
26082;SDS011;13848;49.018;12.078;2023-04-03T09:37:32;2.00;;;1.10;;
26082;SDS011;13848;49.018;12.078;2023-04-03T09:40:02;6.55;;;2.03;;
26082;SDS011;13848;49.018;12.078;2023-04-03T09:42:29;2.17;;;1.00;;
26082;SDS011;13848;49.018;12.078;2023-04-03T09:44:57;1.27;;;0.93;;
26082;SDS011;13848;49.018;12.078;2023-04-03T09:47:24;1.58;;;0.80;;
26082;SDS011;13848;49.018;12.078;2023-04-03T09:49:53;2.47;;;0.80;;
26082;SDS011;13848;49.018;12.078;2023-04-03T09:52:43;1.85;;;1.13;;
26082;SDS011;13848;49.018;12.078;2023-04-03T09:55:16;1.58;;;0.93;;
26082;SDS011;13848;49.018;12.078;2023-04-03T09:57:43;1.52;;;1.20;;
26082;SDS011;13848;49.018;12.078;2023-04-03T10:00:19;2.60;;;1.05;;
26082;SDS011;13848;49.018;12.078;2023-04-03T10:02:47;2.72;;;1.20;;
26082;SDS011;13848;49.018;12.078;2023-04-03T10:05:26;2.28;;;1.00;;
26082;SDS011;13848;49.018;12.078;2023-04-03T10:08:19;2.08;;;1.02;;
26082;SDS011;13848;49.018;12.078;2023-04-03T10:11:05;2.30;;;1.08;;
26082;SDS011;13848;49.018;12.078;2023-04-03T10:13:33;2.65;;;1.00;;
26082;SDS011;13848;49.018;12.078;2023-04-03T10:15:59;1.90;;;1.10;;
26082;SDS011;13848;49.018;12.078;2023-04-03T10:18:32;4.70;;;2.40;;
26082;SDS011;13848;49.018;12.078;2023-04-03T10:21:07;4.65;;;1.30;;
26082;SDS011;13848;49.018;12.078;2023-04-03T10:23:40;3.85;;;1.20;;
26082;SDS011;13848;49.018;12.078;2023-04-03T10:26:12;4.20;;;1.00;;
26082;SDS011;13848;49.018;12.078;2023-04-03T10:28:45;1.92;;;1.00;;
26082;SDS011;13848;49.018;12.078;2023-04-03T10:31:20;3.30;;;1.40;;
26082;SDS011;13848;49.018;12.078;2023-04-03T10:33:53;5.75;;;1.40;;
26082;SDS011;13848;49.018;12.078;2023-04-03T10:36:29;1.48;;;0.80;;
26082;SDS011;13848;49.018;12.078;2023-04-03T10:39:04;1.48;;;0.95;;
26082;SDS011;13848;49.018;12.078;2023-04-03T10:41:44;1.70;;;1.00;;
26082;SDS011;13848;49.018;12.078;2023-04-03T10:44:20;1.25;;;0.90;;
26082;SDS011;13848;49.018;12.078;2023-04-03T10:46:58;2.80;;;0.93;;
26082;SDS011;13848;49.018;12.078;2023-04-03T10:49:35;2.55;;;1.30;;
26082;SDS011;13848;49.018;12.078;2023-04-03T10:52:13;1.63;;;1.15;;
26082;SDS011;13848;49.018;12.078;2023-04-03T10:54:43;1.48;;;0.98;;
26082;SDS011;13848;49.018;12.078;2023-04-03T10:59:43;1.17;;;0.90;;
26082;SDS011;13848;49.018;12.078;2023-04-03T11:02:13;3.47;;;1.30;;
26082;SDS011;13848;49.018;12.078;2023-04-03T11:04:47;2.03;;;0.85;;
26082;SDS011;13848;49.018;12.078;2023-04-03T11:07:17;1.75;;;1.33;;
26082;SDS011;13848;49.018;12.078;2023-04-03T11:09:46;1.25;;;0.90;;
26082;SDS011;13848;49.018;12.078;2023-04-03T11:12:17;2.58;;;1.10;;
26082;SDS011;13848;49.018;12.078;2023-04-03T11:14:48;2.08;;;0.90;;
26082;SDS011;13848;49.018;12.078;2023-04-03T11:17:22;1.95;;;1.20;;
26082;SDS011;13848;49.018;12.078;2023-04-03T11:19:57;2.33;;;0.90;;
26082;SDS011;13848;49.018;12.078;2023-04-03T11:22:27;3.22;;;1.00;;
26082;SDS011;13848;49.018;12.078;2023-04-03T11:24:58;2.10;;;1.10;;
26082;SDS011;13848;49.018;12.078;2023-04-03T11:27:33;0.98;;;0.80;;
26082;SDS011;13848;49.018;12.078;2023-04-03T11:30:14;1.42;;;1.00;;
26082;SDS011;13848;49.018;12.078;2023-04-03T11:32:50;2.53;;;1.00;;
26082;SDS011;13848;49.018;12.078;2023-04-03T11:35:27;1.63;;;1.00;;
26082;SDS011;13848;49.018;12.078;2023-04-03T11:37:54;2.95;;;1.10;;
26082;SDS011;13848;49.018;12.078;2023-04-03T11:40:22;1.65;;;0.98;;
26082;SDS011;13848;49.018;12.078;2023-04-03T11:42:53;2.42;;;0.90;;
26082;SDS011;13848;49.018;12.078;2023-04-03T11:45:31;1.27;;;1.00;;
26082;SDS011;13848;49.018;12.078;2023-04-03T11:48:00;1.75;;;0.90;;
26082;SDS011;13848;49.018;12.078;2023-04-03T11:50:40;2.65;;;0.93;;
26082;SDS011;13848;49.018;12.078;2023-04-03T11:53:27;1.50;;;1.00;;
26082;SDS011;13848;49.018;12.078;2023-04-03T11:55:59;2.20;;;1.00;;
26082;SDS011;13848;49.018;12.078;2023-04-03T11:58:29;1.55;;;1.00;;
26082;SDS011;13848;49.018;12.078;2023-04-03T12:01:01;2.90;;;0.98;;
26082;SDS011;13848;49.018;12.078;2023-04-03T12:06:47;3.60;;;1.35;;
26082;SDS011;13848;49.018;12.078;2023-04-03T12:09:22;1.05;;;0.80;;
26082;SDS011;13848;49.018;12.078;2023-04-03T12:11:50;2.27;;;1.10;;
26082;SDS011;13848;49.018;12.078;2023-04-03T12:14:18;1.48;;;0.93;;
26082;SDS011;13848;49.018;12.078;2023-04-03T12:16:47;1.88;;;1.00;;
26082;SDS011;13848;49.018;12.078;2023-04-03T12:19:27;1.73;;;1.13;;
26082;SDS011;13848;49.018;12.078;2023-04-03T12:22:13;1.40;;;0.93;;
26082;SDS011;13848;49.018;12.078;2023-04-03T12:24:41;2.05;;;1.23;;
26082;SDS011;13848;49.018;12.078;2023-04-03T12:27:16;3.97;;;1.10;;
26082;SDS011;13848;49.018;12.078;2023-04-03T12:29:56;2.72;;;1.30;;
26082;SDS011;13848;49.018;12.078;2023-04-03T12:32:40;4.55;;;1.00;;
26082;SDS011;13848;49.018;12.078;2023-04-03T12:35:14;2.20;;;1.02;;
26082;SDS011;13848;49.018;12.078;2023-04-03T12:37:54;2.05;;;1.20;;
26082;SDS011;13848;49.018;12.078;2023-04-03T12:40:42;3.03;;;1.13;;
26082;SDS011;13848;49.018;12.078;2023-04-03T12:43:19;1.65;;;1.02;;
26082;SDS011;13848;49.018;12.078;2023-04-03T12:45:56;1.38;;;1.10;;
26082;SDS011;13848;49.018;12.078;2023-04-03T12:48:26;1.58;;;1.05;;
26082;SDS011;13848;49.018;12.078;2023-04-03T12:50:54;1.90;;;0.90;;
26082;SDS011;13848;49.018;12.078;2023-04-03T12:53:22;2.65;;;0.93;;
26082;SDS011;13848;49.018;12.078;2023-04-03T12:55:53;1.23;;;1.00;;
26082;SDS011;13848;49.018;12.078;2023-04-03T12:58:21;1.98;;;1.00;;
26082;SDS011;13848;49.018;12.078;2023-04-03T13:00:59;5.22;;;1.38;;
26082;SDS011;13848;49.018;12.078;2023-04-03T13:03:27;0.80;;;0.70;;
26082;SDS011;13848;49.018;12.078;2023-04-03T13:05:54;2.42;;;1.05;;
26082;SDS011;13848;49.018;12.078;2023-04-03T13:08:22;3.00;;;1.80;;
26082;SDS011;13848;49.018;12.078;2023-04-03T13:10:53;2.45;;;1.20;;
26082;SDS011;13848;49.018;12.078;2023-04-03T13:13:23;1.48;;;0.93;;
26082;SDS011;13848;49.018;12.078;2023-04-03T13:15:49;2.33;;;1.27;;
26082;SDS011;13848;49.018;12.078;2023-04-03T13:18:24;3.03;;;1.33;;
26082;SDS011;13848;49.018;12.078;2023-04-03T13:20:53;2.65;;;1.05;;
26082;SDS011;13848;49.018;12.078;2023-04-03T13:23:22;4.43;;;1.08;;
26082;SDS011;13848;49.018;12.078;2023-04-03T13:25:48;1.45;;;0.90;;
26082;SDS011;13848;49.018;12.078;2023-04-03T13:28:17;4.68;;;1.15;;
26082;SDS011;13848;49.018;12.078;2023-04-03T13:30:54;1.65;;;0.88;;
26082;SDS011;13848;49.018;12.078;2023-04-03T13:33:24;3.00;;;0.88;;
26082;SDS011;13848;49.018;12.078;2023-04-03T13:35:56;1.15;;;0.90;;
26082;SDS011;13848;49.018;12.078;2023-04-03T13:38:24;1.48;;;0.85;;
26082;SDS011;13848;49.018;12.078;2023-04-03T13:40:52;1.95;;;0.85;;
26082;SDS011;13848;49.018;12.078;2023-04-03T13:43:21;1.20;;;1.02;;
26082;SDS011;13848;49.018;12.078;2023-04-03T13:45:54;2.38;;;0.90;;
26082;SDS011;13848;49.018;12.078;2023-04-03T13:48:22;1.83;;;1.10;;
26082;SDS011;13848;49.018;12.078;2023-04-03T13:50:50;1.30;;;0.80;;
26082;SDS011;13848;49.018;12.078;2023-04-03T13:53:19;3.08;;;1.00;;
26082;SDS011;13848;49.018;12.078;2023-04-03T13:55:53;1.63;;;0.93;;
26082;SDS011;13848;49.018;12.078;2023-04-03T13:58:24;1.40;;;1.02;;
26082;SDS011;13848;49.018;12.078;2023-04-03T14:00:52;2.75;;;1.00;;
26082;SDS011;13848;49.018;12.078;2023-04-03T14:03:20;1.65;;;0.88;;
26082;SDS011;13848;49.018;12.078;2023-04-03T14:05:54;1.77;;;1.02;;
26082;SDS011;13848;49.018;12.078;2023-04-03T14:08:20;1.88;;;1.10;;
26082;SDS011;13848;49.018;12.078;2023-04-03T14:10:47;1.42;;;0.80;;
26082;SDS011;13848;49.018;12.078;2023-04-03T14:13:14;2.05;;;1.17;;
26082;SDS011;13848;49.018;12.078;2023-04-03T14:15:41;2.80;;;1.02;;
26082;SDS011;13848;49.018;12.078;2023-04-03T14:18:09;3.70;;;1.10;;
26082;SDS011;13848;49.018;12.078;2023-04-03T14:20:38;1.00;;;0.90;;
26082;SDS011;13848;49.018;12.078;2023-04-03T14:23:04;1.80;;;1.17;;
26082;SDS011;13848;49.018;12.078;2023-04-03T14:25:30;3.65;;;1.00;;
26082;SDS011;13848;49.018;12.078;2023-04-03T14:27:56;2.08;;;1.15;;
26082;SDS011;13848;49.018;12.078;2023-04-03T14:30:23;3.03;;;1.42;;
26082;SDS011;13848;49.018;12.078;2023-04-03T14:32:51;1.90;;;1.23;;
26082;SDS011;13848;49.018;12.078;2023-04-03T14:35:18;1.45;;;1.05;;
26082;SDS011;13848;49.018;12.078;2023-04-03T14:37:46;2.40;;;1.30;;
26082;SDS011;13848;49.018;12.078;2023-04-03T14:40:13;2.65;;;1.23;;
26082;SDS011;13848;49.018;12.078;2023-04-03T14:42:41;4.55;;;1.40;;
26082;SDS011;13848;49.018;12.078;2023-04-03T14:45:08;2.03;;;1.35;;
26082;SDS011;13848;49.018;12.078;2023-04-03T14:47:39;2.85;;;1.40;;
26082;SDS011;13848;49.018;12.078;2023-04-03T14:50:10;3.47;;;1.13;;